sensor_id;sensor_type;location;lat;lon;timestamp;P1;durP1;ratioP1;P2;durP2;ratioP2
61569;SDS011;47462;59.172;17.196;2022-10-31T00:01:57;6.77;;;2.40;;
61569;SDS011;47462;59.172;17.196;2022-10-31T00:04:22;6.03;;;2.80;;
61569;SDS011;47462;59.172;17.196;2022-10-31T00:06:48;7.17;;;2.93;;
61569;SDS011;47462;59.172;17.196;2022-10-31T00:09:13;4.60;;;3.03;;
61569;SDS011;47462;59.172;17.196;2022-10-31T00:11:38;6.57;;;3.10;;
61569;SDS011;47462;59.172;17.196;2022-10-31T00:14:04;5.13;;;3.10;;
61569;SDS011;47462;59.172;17.196;2022-10-31T00:16:29;7.60;;;3.05;;
61569;SDS011;47462;59.172;17.196;2022-10-31T00:18:58;12.63;;;3.83;;
61569;SDS011;47462;59.172;17.196;2022-10-31T00:21:25;9.57;;;3.40;;
61569;SDS011;47462;59.172;17.196;2022-10-31T00:23:51;21.85;;;4.10;;
61569;SDS011;47462;59.172;17.196;2022-10-31T00:26:17;34.28;;;4.75;;
61569;SDS011;47462;59.172;17.196;2022-10-31T00:28:42;20.95;;;3.67;;
61569;SDS011;47462;59.172;17.196;2022-10-31T00:31:08;50.60;;;4.30;;
61569;SDS011;47462;59.172;17.196;2022-10-31T00:33:35;30.85;;;3.03;;
61569;SDS011;47462;59.172;17.196;2022-10-31T00:36:03;9.82;;;2.70;;
61569;SDS011;47462;59.172;17.196;2022-10-31T00:38:29;12.50;;;2.67;;
61569;SDS011;47462;59.172;17.196;2022-10-31T00:40:55;26.07;;;2.80;;
61569;SDS011;47462;59.172;17.196;2022-10-31T00:43:20;16.73;;;2.43;;
61569;SDS011;47462;59.172;17.196;2022-10-31T00:45:45;47.83;;;3.33;;
61569;SDS011;47462;59.172;17.196;2022-10-31T00:48:11;16.90;;;2.47;;
61569;SDS011;47462;59.172;17.196;2022-10-31T00:50:37;52.33;;;3.72;;
61569;SDS011;47462;59.172;17.196;2022-10-31T00:53:03;79.43;;;4.35;;
61569;SDS011;47462;59.172;17.196;2022-10-31T00:55:28;53.20;;;3.37;;
61569;SDS011;47462;59.172;17.196;2022-10-31T00:57:53;20.03;;;2.30;;
61569;SDS011;47462;59.172;17.196;2022-10-31T01:00:19;12.47;;;2.40;;
61569;SDS011;47462;59.172;17.196;2022-10-31T01:02:44;52.40;;;3.63;;
61569;SDS011;47462;59.172;17.196;2022-10-31T01:05:09;51.60;;;2.73;;
61569;SDS011;47462;59.172;17.196;2022-10-31T01:07:35;19.03;;;2.10;;
61569;SDS011;47462;59.172;17.196;2022-10-31T01:10:02;13.65;;;2.03;;
61569;SDS011;47462;59.172;17.196;2022-10-31T01:12:28;22.98;;;2.33;;
61569;SDS011;47462;59.172;17.196;2022-10-31T01:14:53;67.30;;;3.47;;
61569;SDS011;47462;59.172;17.196;2022-10-31T01:17:18;49.47;;;3.30;;
61569;SDS011;47462;59.172;17.196;2022-10-31T01:19:44;55.77;;;3.33;;
61569;SDS011;47462;59.172;17.196;2022-10-31T01:22:10;220.75;;;7.03;;
61569;SDS011;47462;59.172;17.196;2022-10-31T01:24:45;29.23;;;3.00;;
61569;SDS011;47462;59.172;17.196;2022-10-31T01:27:12;54.28;;;3.58;;
61569;SDS011;47462;59.172;17.196;2022-10-31T01:29:37;39.08;;;2.85;;
61569;SDS011;47462;59.172;17.196;2022-10-31T01:32:03;35.90;;;2.90;;
61569;SDS011;47462;59.172;17.196;2022-10-31T01:34:28;20.23;;;2.85;;
61569;SDS011;47462;59.172;17.196;2022-10-31T01:36:54;38.70;;;3.40;;
61569;SDS011;47462;59.172;17.196;2022-10-31T01:39:19;51.87;;;3.20;;
61569;SDS011;47462;59.172;17.196;2022-10-31T01:41:46;111.93;;;3.83;;
61569;SDS011;47462;59.172;17.196;2022-10-31T01:46:48;24.67;;;2.53;;
61569;SDS011;47462;59.172;17.196;2022-10-31T01:49:28;13.45;;;2.10;;
61569;SDS011;47462;59.172;17.196;2022-10-31T01:52:02;33.92;;;2.55;;
61569;SDS011;47462;59.172;17.196;2022-10-31T01:54:32;37.08;;;3.53;;
61569;SDS011;47462;59.172;17.196;2022-10-31T01:57:02;43.70;;;3.80;;
61569;SDS011;47462;59.172;17.196;2022-10-31T01:59:30;149.20;;;6.32;;
61569;SDS011;47462;59.172;17.196;2022-10-31T02:01:58;53.00;;;3.35;;
61569;SDS011;47462;59.172;17.196;2022-10-31T02:04:23;15.57;;;2.83;;
61569;SDS011;47462;59.172;17.196;2022-10-31T02:09:21;9.90;;;2.50;;
61569;SDS011;47462;59.172;17.196;2022-10-31T02:11:52;6.57;;;2.67;;
61569;SDS011;47462;59.172;17.196;2022-10-31T02:14:21;30.08;;;3.13;;
61569;SDS011;47462;59.172;17.196;2022-10-31T02:16:48;23.98;;;3.00;;
61569;SDS011;47462;59.172;17.196;2022-10-31T02:19:15;15.48;;;3.10;;
61569;SDS011;47462;59.172;17.196;2022-10-31T02:21:57;86.63;;;5.75;;
61569;SDS011;47462;59.172;17.196;2022-10-31T02:24:40;29.20;;;3.55;;
61569;SDS011;47462;59.172;17.196;2022-10-31T02:30:09;7.55;;;3.15;;
61569;SDS011;47462;59.172;17.196;2022-10-31T02:32:43;10.70;;;3.67;;
61569;SDS011;47462;59.172;17.196;2022-10-31T02:35:25;9.60;;;3.43;;
61569;SDS011;47462;59.172;17.196;2022-10-31T02:38:18;8.70;;;3.40;;
61569;SDS011;47462;59.172;17.196;2022-10-31T02:46:56;12.90;;;3.85;;
61569;SDS011;47462;59.172;17.196;2022-10-31T02:52:01;6.95;;;3.35;;
61569;SDS011;47462;59.172;17.196;2022-10-31T02:54:27;12.13;;;3.23;;
61569;SDS011;47462;59.172;17.196;2022-10-31T02:57:00;9.68;;;4.10;;
61569;SDS011;47462;59.172;17.196;2022-10-31T02:59:30;11.82;;;3.78;;
61569;SDS011;47462;59.172;17.196;2022-10-31T03:04:45;19.25;;;4.30;;
61569;SDS011;47462;59.172;17.196;2022-10-31T03:21:35;7.90;;;2.90;;
61569;SDS011;47462;59.172;17.196;2022-10-31T03:24:05;6.97;;;3.25;;
61569;SDS011;47462;59.172;17.196;2022-10-31T03:26:32;8.27;;;3.10;;
61569;SDS011;47462;59.172;17.196;2022-10-31T03:29:03;11.32;;;3.10;;
61569;SDS011;47462;59.172;17.196;2022-10-31T03:31:35;8.30;;;2.83;;
61569;SDS011;47462;59.172;17.196;2022-10-31T03:34:06;6.57;;;3.15;;
61569;SDS011;47462;59.172;17.196;2022-10-31T03:36:34;6.63;;;2.97;;
61569;SDS011;47462;59.172;17.196;2022-10-31T03:39:02;5.43;;;2.88;;
61569;SDS011;47462;59.172;17.196;2022-10-31T03:41:31;13.05;;;4.25;;
61569;SDS011;47462;59.172;17.196;2022-10-31T03:44:02;7.32;;;2.50;;
61569;SDS011;47462;59.172;17.196;2022-10-31T03:46:33;6.90;;;3.15;;
61569;SDS011;47462;59.172;17.196;2022-10-31T03:48:59;12.13;;;3.80;;
61569;SDS011;47462;59.172;17.196;2022-10-31T03:51:26;10.48;;;3.42;;
61569;SDS011;47462;59.172;17.196;2022-10-31T03:54:02;10.20;;;4.63;;
61569;SDS011;47462;59.172;17.196;2022-10-31T03:56:35;10.75;;;3.72;;
61569;SDS011;47462;59.172;17.196;2022-10-31T03:59:09;9.75;;;3.13;;
61569;SDS011;47462;59.172;17.196;2022-10-31T04:01:42;11.13;;;3.60;;
61569;SDS011;47462;59.172;17.196;2022-10-31T04:04:18;6.07;;;2.97;;
61569;SDS011;47462;59.172;17.196;2022-10-31T04:06:45;10.40;;;3.42;;
61569;SDS011;47462;59.172;17.196;2022-10-31T04:09:11;10.02;;;3.20;;
61569;SDS011;47462;59.172;17.196;2022-10-31T04:11:43;10.55;;;3.38;;
61569;SDS011;47462;59.172;17.196;2022-10-31T04:14:13;11.55;;;3.35;;
61569;SDS011;47462;59.172;17.196;2022-10-31T04:16:39;11.37;;;3.27;;
61569;SDS011;47462;59.172;17.196;2022-10-31T04:19:07;10.20;;;3.53;;
61569;SDS011;47462;59.172;17.196;2022-10-31T04:21:33;11.52;;;3.88;;
61569;SDS011;47462;59.172;17.196;2022-10-31T04:23:58;13.90;;;3.97;;
61569;SDS011;47462;59.172;17.196;2022-10-31T04:26:24;15.60;;;4.47;;
61569;SDS011;47462;59.172;17.196;2022-10-31T04:28:50;21.58;;;4.57;;
61569;SDS011;47462;59.172;17.196;2022-10-31T04:31:15;17.30;;;5.13;;
61569;SDS011;47462;59.172;17.196;2022-10-31T04:33:41;48.53;;;7.57;;
61569;SDS011;47462;59.172;17.196;2022-10-31T04:36:06;58.43;;;6.83;;
61569;SDS011;47462;59.172;17.196;2022-10-31T04:38:32;15.55;;;4.68;;
61569;SDS011;47462;59.172;17.196;2022-10-31T04:40:58;73.30;;;7.43;;
61569;SDS011;47462;59.172;17.196;2022-10-31T04:43:23;25.97;;;5.67;;
61569;SDS011;47462;59.172;17.196;2022-10-31T04:45:48;17.13;;;5.37;;
61569;SDS011;47462;59.172;17.196;2022-10-31T04:48:14;13.93;;;4.70;;
61569;SDS011;47462;59.172;17.196;2022-10-31T04:50:39;8.97;;;4.70;;
61569;SDS011;47462;59.172;17.196;2022-10-31T04:53:04;39.20;;;4.90;;
61569;SDS011;47462;59.172;17.196;2022-10-31T04:55:30;57.10;;;5.87;;
61569;SDS011;47462;59.172;17.196;2022-10-31T04:57:55;8.70;;;4.10;;
61569;SDS011;47462;59.172;17.196;2022-10-31T05:00:21;46.90;;;6.03;;
61569;SDS011;47462;59.172;17.196;2022-10-31T05:02:51;11.75;;;4.03;;
61569;SDS011;47462;59.172;17.196;2022-10-31T05:05:18;19.00;;;3.92;;
61569;SDS011;47462;59.172;17.196;2022-10-31T05:07:46;20.45;;;4.28;;
61569;SDS011;47462;59.172;17.196;2022-10-31T05:10:14;17.63;;;4.35;;
61569;SDS011;47462;59.172;17.196;2022-10-31T05:12:51;22.02;;;4.20;;
61569;SDS011;47462;59.172;17.196;2022-10-31T05:15:19;29.98;;;4.78;;
61569;SDS011;47462;59.172;17.196;2022-10-31T05:17:46;87.00;;;6.60;;
61569;SDS011;47462;59.172;17.196;2022-10-31T05:20:12;33.28;;;5.05;;
61569;SDS011;47462;59.172;17.196;2022-10-31T05:22:41;91.70;;;6.70;;
61569;SDS011;47462;59.172;17.196;2022-10-31T05:25:08;19.55;;;3.97;;
61569;SDS011;47462;59.172;17.196;2022-10-31T05:27:34;10.00;;;3.70;;
61569;SDS011;47462;59.172;17.196;2022-10-31T05:29:59;27.27;;;4.00;;
61569;SDS011;47462;59.172;17.196;2022-10-31T05:32:24;21.43;;;4.20;;
61569;SDS011;47462;59.172;17.196;2022-10-31T05:34:50;19.63;;;3.80;;
61569;SDS011;47462;59.172;17.196;2022-10-31T05:37:15;21.70;;;4.40;;
61569;SDS011;47462;59.172;17.196;2022-10-31T05:39:41;14.67;;;3.77;;
61569;SDS011;47462;59.172;17.196;2022-10-31T05:42:07;20.77;;;4.25;;
61569;SDS011;47462;59.172;17.196;2022-10-31T05:44:32;22.93;;;4.30;;
61569;SDS011;47462;59.172;17.196;2022-10-31T05:46:57;67.97;;;5.37;;
61569;SDS011;47462;59.172;17.196;2022-10-31T05:49:23;31.15;;;4.03;;
61569;SDS011;47462;59.172;17.196;2022-10-31T05:51:48;20.33;;;4.97;;
61569;SDS011;47462;59.172;17.196;2022-10-31T05:54:14;35.13;;;4.20;;
61569;SDS011;47462;59.172;17.196;2022-10-31T05:56:40;15.10;;;4.18;;
61569;SDS011;47462;59.172;17.196;2022-10-31T05:59:05;19.97;;;4.17;;
61569;SDS011;47462;59.172;17.196;2022-10-31T06:01:31;20.33;;;4.53;;
61569;SDS011;47462;59.172;17.196;2022-10-31T06:03:56;19.20;;;3.92;;
61569;SDS011;47462;59.172;17.196;2022-10-31T06:06:21;100.20;;;6.47;;
61569;SDS011;47462;59.172;17.196;2022-10-31T06:08:47;24.27;;;4.53;;
61569;SDS011;47462;59.172;17.196;2022-10-31T06:11:12;15.50;;;4.10;;
61569;SDS011;47462;59.172;17.196;2022-10-31T06:13:38;29.58;;;4.68;;
61569;SDS011;47462;59.172;17.196;2022-10-31T06:16:03;17.77;;;4.37;;
61569;SDS011;47462;59.172;17.196;2022-10-31T06:18:29;14.68;;;4.43;;
61569;SDS011;47462;59.172;17.196;2022-10-31T06:20:54;13.87;;;4.03;;
61569;SDS011;47462;59.172;17.196;2022-10-31T06:23:20;12.83;;;3.70;;
61569;SDS011;47462;59.172;17.196;2022-10-31T06:25:49;11.95;;;3.55;;
61569;SDS011;47462;59.172;17.196;2022-10-31T06:28:14;22.30;;;4.22;;
61569;SDS011;47462;59.172;17.196;2022-10-31T06:30:40;10.93;;;4.23;;
61569;SDS011;47462;59.172;17.196;2022-10-31T06:33:05;13.70;;;3.90;;
61569;SDS011;47462;59.172;17.196;2022-10-31T06:35:31;9.97;;;3.23;;
61569;SDS011;47462;59.172;17.196;2022-10-31T06:37:59;13.35;;;4.25;;
61569;SDS011;47462;59.172;17.196;2022-10-31T06:40:25;10.55;;;3.80;;
61569;SDS011;47462;59.172;17.196;2022-10-31T06:43:08;13.65;;;3.78;;
61569;SDS011;47462;59.172;17.196;2022-10-31T06:45:34;11.48;;;3.80;;
61569;SDS011;47462;59.172;17.196;2022-10-31T06:47:59;9.15;;;3.40;;
61569;SDS011;47462;59.172;17.196;2022-10-31T06:50:24;11.68;;;4.55;;
61569;SDS011;47462;59.172;17.196;2022-10-31T06:52:53;18.08;;;4.65;;
61569;SDS011;47462;59.172;17.196;2022-10-31T06:55:20;9.57;;;4.13;;
61569;SDS011;47462;59.172;17.196;2022-10-31T07:00:17;16.05;;;4.78;;
61569;SDS011;47462;59.172;17.196;2022-10-31T07:02:42;14.35;;;3.92;;
61569;SDS011;47462;59.172;17.196;2022-10-31T07:05:08;11.63;;;4.50;;
61569;SDS011;47462;59.172;17.196;2022-10-31T07:07:33;13.30;;;4.35;;
61569;SDS011;47462;59.172;17.196;2022-10-31T07:10:01;11.90;;;3.72;;
61569;SDS011;47462;59.172;17.196;2022-10-31T07:12:27;16.38;;;4.78;;
61569;SDS011;47462;59.172;17.196;2022-10-31T07:14:52;23.50;;;5.15;;
61569;SDS011;47462;59.172;17.196;2022-10-31T07:17:18;13.00;;;4.33;;
61569;SDS011;47462;59.172;17.196;2022-10-31T07:19:43;13.60;;;4.10;;
61569;SDS011;47462;59.172;17.196;2022-10-31T07:22:09;10.73;;;4.38;;
61569;SDS011;47462;59.172;17.196;2022-10-31T07:24:34;30.50;;;5.80;;
61569;SDS011;47462;59.172;17.196;2022-10-31T07:26:59;18.97;;;5.30;;
61569;SDS011;47462;59.172;17.196;2022-10-31T07:29:25;13.25;;;4.43;;
61569;SDS011;47462;59.172;17.196;2022-10-31T07:31:50;11.67;;;4.57;;
61569;SDS011;47462;59.172;17.196;2022-10-31T07:34:16;16.40;;;4.85;;
61569;SDS011;47462;59.172;17.196;2022-10-31T07:36:41;21.02;;;5.10;;
61569;SDS011;47462;59.172;17.196;2022-10-31T07:39:06;21.10;;;6.40;;
61569;SDS011;47462;59.172;17.196;2022-10-31T07:41:32;12.37;;;4.50;;
61569;SDS011;47462;59.172;17.196;2022-10-31T07:43:58;14.80;;;5.18;;
61569;SDS011;47462;59.172;17.196;2022-10-31T07:46:23;11.00;;;4.77;;
61569;SDS011;47462;59.172;17.196;2022-10-31T07:48:49;11.53;;;5.00;;
61569;SDS011;47462;59.172;17.196;2022-10-31T07:51:14;9.93;;;5.35;;
61569;SDS011;47462;59.172;17.196;2022-10-31T07:53:39;9.40;;;4.63;;
61569;SDS011;47462;59.172;17.196;2022-10-31T07:56:05;14.10;;;5.20;;
61569;SDS011;47462;59.172;17.196;2022-10-31T07:58:31;12.82;;;5.53;;
61569;SDS011;47462;59.172;17.196;2022-10-31T08:00:57;24.43;;;5.47;;
61569;SDS011;47462;59.172;17.196;2022-10-31T08:03:22;15.45;;;4.93;;
61569;SDS011;47462;59.172;17.196;2022-10-31T08:05:48;8.75;;;5.22;;
61569;SDS011;47462;59.172;17.196;2022-10-31T08:08:13;14.77;;;6.40;;
61569;SDS011;47462;59.172;17.196;2022-10-31T08:10:40;14.55;;;5.32;;
61569;SDS011;47462;59.172;17.196;2022-10-31T08:13:09;16.08;;;5.18;;
61569;SDS011;47462;59.172;17.196;2022-10-31T08:15:37;20.48;;;6.00;;
61569;SDS011;47462;59.172;17.196;2022-10-31T08:18:05;12.93;;;5.97;;
61569;SDS011;47462;59.172;17.196;2022-10-31T08:20:31;14.02;;;6.43;;
61569;SDS011;47462;59.172;17.196;2022-10-31T08:23:00;13.82;;;5.80;;
61569;SDS011;47462;59.172;17.196;2022-10-31T08:25:28;14.43;;;5.55;;
61569;SDS011;47462;59.172;17.196;2022-10-31T08:27:55;13.38;;;5.72;;
61569;SDS011;47462;59.172;17.196;2022-10-31T08:30:23;17.83;;;5.65;;
61569;SDS011;47462;59.172;17.196;2022-10-31T08:32:58;12.73;;;5.40;;
61569;SDS011;47462;59.172;17.196;2022-10-31T08:35:24;12.25;;;5.50;;
61569;SDS011;47462;59.172;17.196;2022-10-31T08:37:53;14.00;;;6.17;;
61569;SDS011;47462;59.172;17.196;2022-10-31T08:40:20;16.92;;;6.40;;
61569;SDS011;47462;59.172;17.196;2022-10-31T08:42:45;15.70;;;6.45;;
61569;SDS011;47462;59.172;17.196;2022-10-31T08:45:11;22.38;;;6.10;;
61569;SDS011;47462;59.172;17.196;2022-10-31T08:47:36;19.85;;;7.63;;
61569;SDS011;47462;59.172;17.196;2022-10-31T08:50:02;19.55;;;6.97;;
61569;SDS011;47462;59.172;17.196;2022-10-31T08:52:27;23.73;;;6.90;;
61569;SDS011;47462;59.172;17.196;2022-10-31T08:54:53;17.73;;;6.60;;
61569;SDS011;47462;59.172;17.196;2022-10-31T08:57:18;15.38;;;6.13;;
61569;SDS011;47462;59.172;17.196;2022-10-31T08:59:44;13.68;;;6.15;;
61569;SDS011;47462;59.172;17.196;2022-10-31T09:02:09;14.40;;;6.10;;
61569;SDS011;47462;59.172;17.196;2022-10-31T09:04:34;14.30;;;6.15;;
61569;SDS011;47462;59.172;17.196;2022-10-31T09:07:00;16.23;;;6.27;;
61569;SDS011;47462;59.172;17.196;2022-10-31T09:09:25;11.30;;;6.28;;
61569;SDS011;47462;59.172;17.196;2022-10-31T09:11:51;13.70;;;6.05;;
61569;SDS011;47462;59.172;17.196;2022-10-31T09:14:16;12.10;;;6.23;;
61569;SDS011;47462;59.172;17.196;2022-10-31T09:16:42;12.10;;;5.73;;
61569;SDS011;47462;59.172;17.196;2022-10-31T09:19:07;21.23;;;12.35;;
61569;SDS011;47462;59.172;17.196;2022-10-31T09:21:32;24.47;;;13.00;;
61569;SDS011;47462;59.172;17.196;2022-10-31T09:23:58;16.92;;;8.77;;
61569;SDS011;47462;59.172;17.196;2022-10-31T09:26:23;13.77;;;7.22;;
61569;SDS011;47462;59.172;17.196;2022-10-31T09:28:48;12.93;;;5.53;;
61569;SDS011;47462;59.172;17.196;2022-10-31T09:31:14;13.73;;;5.97;;
61569;SDS011;47462;59.172;17.196;2022-10-31T09:33:40;31.02;;;13.38;;
61569;SDS011;47462;59.172;17.196;2022-10-31T09:36:07;28.55;;;15.25;;
61569;SDS011;47462;59.172;17.196;2022-10-31T09:38:32;36.78;;;20.52;;
61569;SDS011;47462;59.172;17.196;2022-10-31T09:43:50;19.80;;;8.68;;
61569;SDS011;47462;59.172;17.196;2022-10-31T09:46:59;15.32;;;7.20;;
61569;SDS011;47462;59.172;17.196;2022-10-31T09:55:53;15.18;;;9.32;;
61569;SDS011;47462;59.172;17.196;2022-10-31T09:58:27;21.90;;;9.80;;
61569;SDS011;47462;59.172;17.196;2022-10-31T10:00:56;15.07;;;9.05;;
61569;SDS011;47462;59.172;17.196;2022-10-31T10:06:04;20.27;;;9.43;;
61569;SDS011;47462;59.172;17.196;2022-10-31T10:08:32;19.77;;;9.02;;
61569;SDS011;47462;59.172;17.196;2022-10-31T10:11:08;17.98;;;7.63;;
61569;SDS011;47462;59.172;17.196;2022-10-31T10:16:44;15.07;;;7.55;;
61569;SDS011;47462;59.172;17.196;2022-10-31T10:24:42;16.35;;;6.53;;
61569;SDS011;47462;59.172;17.196;2022-10-31T10:32:30;17.38;;;8.10;;
61569;SDS011;47462;59.172;17.196;2022-10-31T10:35:14;11.38;;;6.85;;
61569;SDS011;47462;59.172;17.196;2022-10-31T10:37:46;16.08;;;7.45;;
61569;SDS011;47462;59.172;17.196;2022-10-31T10:40:16;12.70;;;6.63;;
61569;SDS011;47462;59.172;17.196;2022-10-31T10:43:29;17.33;;;7.10;;
61569;SDS011;47462;59.172;17.196;2022-10-31T10:45:44;16.73;;;6.30;;
61569;SDS011;47462;59.172;17.196;2022-10-31T10:48:42;15.45;;;7.28;;
61569;SDS011;47462;59.172;17.196;2022-10-31T10:51:18;14.48;;;7.25;;
61569;SDS011;47462;59.172;17.196;2022-10-31T10:57:03;13.05;;;7.60;;
61569;SDS011;47462;59.172;17.196;2022-10-31T10:59:33;15.93;;;7.72;;
61569;SDS011;47462;59.172;17.196;2022-10-31T11:02:00;12.23;;;6.22;;
61569;SDS011;47462;59.172;17.196;2022-10-31T11:04:34;13.45;;;6.95;;
61569;SDS011;47462;59.172;17.196;2022-10-31T11:07:05;16.38;;;7.25;;
61569;SDS011;47462;59.172;17.196;2022-10-31T11:09:36;13.80;;;7.53;;
61569;SDS011;47462;59.172;17.196;2022-10-31T11:12:07;12.95;;;7.47;;
61569;SDS011;47462;59.172;17.196;2022-10-31T11:14:36;12.63;;;7.68;;
61569;SDS011;47462;59.172;17.196;2022-10-31T11:17:14;14.15;;;6.65;;
61569;SDS011;47462;59.172;17.196;2022-10-31T11:19:45;11.25;;;6.32;;
61569;SDS011;47462;59.172;17.196;2022-10-31T11:22:15;11.07;;;6.28;;
61569;SDS011;47462;59.172;17.196;2022-10-31T11:24:42;11.00;;;5.97;;
61569;SDS011;47462;59.172;17.196;2022-10-31T11:29:41;11.38;;;5.93;;
61569;SDS011;47462;59.172;17.196;2022-10-31T11:32:08;11.63;;;6.38;;
61569;SDS011;47462;59.172;17.196;2022-10-31T11:34:59;11.63;;;6.20;;
61569;SDS011;47462;59.172;17.196;2022-10-31T11:37:34;10.95;;;6.25;;
61569;SDS011;47462;59.172;17.196;2022-10-31T11:40:06;10.40;;;5.78;;
61569;SDS011;47462;59.172;17.196;2022-10-31T11:42:39;11.13;;;6.18;;
61569;SDS011;47462;59.172;17.196;2022-10-31T11:45:16;13.63;;;7.22;;
61569;SDS011;47462;59.172;17.196;2022-10-31T11:47:53;10.10;;;6.10;;
61569;SDS011;47462;59.172;17.196;2022-10-31T11:50:40;11.88;;;5.97;;
61569;SDS011;47462;59.172;17.196;2022-10-31T11:53:14;8.45;;;4.82;;
61569;SDS011;47462;59.172;17.196;2022-10-31T11:55:42;14.80;;;5.45;;
61569;SDS011;47462;59.172;17.196;2022-10-31T11:58:24;10.43;;;6.05;;
61569;SDS011;47462;59.172;17.196;2022-10-31T12:00:51;15.73;;;6.65;;
61569;SDS011;47462;59.172;17.196;2022-10-31T12:05:49;13.77;;;6.15;;
61569;SDS011;47462;59.172;17.196;2022-10-31T12:08:18;11.65;;;5.15;;
61569;SDS011;47462;59.172;17.196;2022-10-31T12:16:57;11.35;;;5.30;;
61569;SDS011;47462;59.172;17.196;2022-10-31T12:19:37;8.98;;;4.40;;
61569;SDS011;47462;59.172;17.196;2022-10-31T12:22:20;10.15;;;4.30;;
61569;SDS011;47462;59.172;17.196;2022-10-31T12:25:10;11.18;;;4.82;;
61569;SDS011;47462;59.172;17.196;2022-10-31T12:37:03;7.97;;;3.83;;
61569;SDS011;47462;59.172;17.196;2022-10-31T12:42:42;5.68;;;3.40;;
61569;SDS011;47462;59.172;17.196;2022-10-31T12:50:52;9.70;;;4.47;;
61569;SDS011;47462;59.172;17.196;2022-10-31T12:55:56;9.27;;;3.67;;
61569;SDS011;47462;59.172;17.196;2022-10-31T12:58:35;12.63;;;4.00;;
61569;SDS011;47462;59.172;17.196;2022-10-31T13:06:09;13.43;;;3.53;;
61569;SDS011;47462;59.172;17.196;2022-10-31T13:08:47;11.13;;;3.30;;
61569;SDS011;47462;59.172;17.196;2022-10-31T13:11:20;5.75;;;2.70;;
61569;SDS011;47462;59.172;17.196;2022-10-31T13:16:28;8.52;;;2.90;;
61569;SDS011;47462;59.172;17.196;2022-10-31T13:24:21;6.45;;;3.10;;
61569;SDS011;47462;59.172;17.196;2022-10-31T13:26:53;8.80;;;3.47;;
61569;SDS011;47462;59.172;17.196;2022-10-31T13:29:24;8.50;;;3.80;;
61569;SDS011;47462;59.172;17.196;2022-10-31T13:31:55;7.20;;;3.20;;
61569;SDS011;47462;59.172;17.196;2022-10-31T13:34:27;5.40;;;2.97;;
61569;SDS011;47462;59.172;17.196;2022-10-31T13:37:17;6.05;;;3.15;;
61569;SDS011;47462;59.172;17.196;2022-10-31T13:42:31;10.48;;;3.85;;
61569;SDS011;47462;59.172;17.196;2022-10-31T13:45:18;7.82;;;2.97;;
61569;SDS011;47462;59.172;17.196;2022-10-31T13:47:55;7.13;;;3.20;;
61569;SDS011;47462;59.172;17.196;2022-10-31T13:50:40;5.30;;;2.53;;
61569;SDS011;47462;59.172;17.196;2022-10-31T13:53:10;5.50;;;3.03;;
61569;SDS011;47462;59.172;17.196;2022-10-31T13:55:41;6.43;;;2.75;;
61569;SDS011;47462;59.172;17.196;2022-10-31T13:58:29;6.28;;;2.88;;
61569;SDS011;47462;59.172;17.196;2022-10-31T14:03:37;5.30;;;3.60;;
61569;SDS011;47462;59.172;17.196;2022-10-31T14:06:04;10.52;;;3.55;;
61569;SDS011;47462;59.172;17.196;2022-10-31T14:08:33;7.32;;;3.05;;
61569;SDS011;47462;59.172;17.196;2022-10-31T14:11:01;5.90;;;2.58;;
61569;SDS011;47462;59.172;17.196;2022-10-31T14:13:29;7.82;;;3.80;;
61569;SDS011;47462;59.172;17.196;2022-10-31T14:16:00;8.02;;;2.38;;
61569;SDS011;47462;59.172;17.196;2022-10-31T14:18:37;6.95;;;3.55;;
61569;SDS011;47462;59.172;17.196;2022-10-31T14:23:49;5.35;;;2.88;;
61569;SDS011;47462;59.172;17.196;2022-10-31T14:26:29;6.25;;;2.50;;
61569;SDS011;47462;59.172;17.196;2022-10-31T14:31:44;6.97;;;2.70;;
61569;SDS011;47462;59.172;17.196;2022-10-31T14:42:23;7.72;;;2.38;;
61569;SDS011;47462;59.172;17.196;2022-10-31T14:48:03;5.50;;;3.05;;
61569;SDS011;47462;59.172;17.196;2022-10-31T14:50:50;4.57;;;2.42;;
61569;SDS011;47462;59.172;17.196;2022-10-31T14:55:49;7.00;;;2.85;;
61569;SDS011;47462;59.172;17.196;2022-10-31T14:58:19;8.57;;;2.70;;
61569;SDS011;47462;59.172;17.196;2022-10-31T15:00:47;7.32;;;3.30;;
61569;SDS011;47462;59.172;17.196;2022-10-31T15:03:16;7.43;;;3.03;;
61569;SDS011;47462;59.172;17.196;2022-10-31T15:05:48;6.15;;;3.08;;
61569;SDS011;47462;59.172;17.196;2022-10-31T15:08:31;7.60;;;3.63;;
61569;SDS011;47462;59.172;17.196;2022-10-31T15:11:02;12.52;;;3.95;;
61569;SDS011;47462;59.172;17.196;2022-10-31T15:13:33;11.45;;;3.75;;
61569;SDS011;47462;59.172;17.196;2022-10-31T15:15:59;7.43;;;3.15;;
61569;SDS011;47462;59.172;17.196;2022-10-31T15:18:25;10.93;;;3.20;;
61569;SDS011;47462;59.172;17.196;2022-10-31T15:20:54;7.88;;;3.10;;
61569;SDS011;47462;59.172;17.196;2022-10-31T15:23:25;5.93;;;3.15;;
61569;SDS011;47462;59.172;17.196;2022-10-31T15:26:02;7.10;;;2.95;;
61569;SDS011;47462;59.172;17.196;2022-10-31T15:28:29;13.45;;;3.72;;
61569;SDS011;47462;59.172;17.196;2022-10-31T15:30:57;4.18;;;2.40;;
61569;SDS011;47462;59.172;17.196;2022-10-31T15:33:39;5.63;;;2.83;;
61569;SDS011;47462;59.172;17.196;2022-10-31T15:36:16;8.57;;;2.80;;
61569;SDS011;47462;59.172;17.196;2022-10-31T15:38:44;11.07;;;3.00;;
61569;SDS011;47462;59.172;17.196;2022-10-31T15:43:59;8.05;;;3.10;;
61569;SDS011;47462;59.172;17.196;2022-10-31T15:46:28;6.20;;;3.10;;
61569;SDS011;47462;59.172;17.196;2022-10-31T15:48:54;5.10;;;3.13;;
61569;SDS011;47462;59.172;17.196;2022-10-31T15:51:30;14.38;;;7.30;;
61569;SDS011;47462;59.172;17.196;2022-10-31T15:53:59;39.75;;;23.00;;
61569;SDS011;47462;59.172;17.196;2022-10-31T15:56:27;42.05;;;25.80;;
61569;SDS011;47462;59.172;17.196;2022-10-31T15:58:55;39.22;;;25.48;;
61569;SDS011;47462;59.172;17.196;2022-10-31T16:01:27;37.63;;;23.00;;
61569;SDS011;47462;59.172;17.196;2022-10-31T16:06:37;16.98;;;8.93;;
61569;SDS011;47462;59.172;17.196;2022-10-31T16:09:03;19.15;;;9.98;;
61569;SDS011;47462;59.172;17.196;2022-10-31T16:11:46;19.45;;;9.30;;
61569;SDS011;47462;59.172;17.196;2022-10-31T16:16:42;14.25;;;7.28;;
61569;SDS011;47462;59.172;17.196;2022-10-31T16:19:14;16.98;;;6.05;;
61569;SDS011;47462;59.172;17.196;2022-10-31T16:21:46;12.02;;;6.70;;
61569;SDS011;47462;59.172;17.196;2022-10-31T16:24:25;10.85;;;5.82;;
61569;SDS011;47462;59.172;17.196;2022-10-31T16:26:54;14.20;;;6.20;;
61569;SDS011;47462;59.172;17.196;2022-10-31T16:29:43;15.48;;;5.97;;
61569;SDS011;47462;59.172;17.196;2022-10-31T16:35:18;8.60;;;5.15;;
61569;SDS011;47462;59.172;17.196;2022-10-31T16:37:48;8.65;;;5.30;;
61569;SDS011;47462;59.172;17.196;2022-10-31T16:40:14;15.85;;;6.30;;
61569;SDS011;47462;59.172;17.196;2022-10-31T16:42:42;10.80;;;4.15;;
61569;SDS011;47462;59.172;17.196;2022-10-31T16:45:13;16.15;;;6.10;;
61569;SDS011;47462;59.172;17.196;2022-10-31T16:47:41;11.02;;;5.15;;
61569;SDS011;47462;59.172;17.196;2022-10-31T16:50:15;9.32;;;5.47;;
61569;SDS011;47462;59.172;17.196;2022-10-31T16:52:44;10.10;;;5.50;;
61569;SDS011;47462;59.172;17.196;2022-10-31T16:55:11;9.40;;;5.10;;
61569;SDS011;47462;59.172;17.196;2022-10-31T16:57:38;10.93;;;5.07;;
61569;SDS011;47462;59.172;17.196;2022-10-31T17:00:08;13.98;;;4.85;;
61569;SDS011;47462;59.172;17.196;2022-10-31T17:02:45;11.98;;;4.40;;